sensor_id;sensor_type;location;lat;lon;timestamp;P1;durP1;ratioP1;P2;durP2;ratioP2
25663;SDS011;13522;50.018;20.014;2022-10-29T00:02:10;39.73;;;28.13;;
25663;SDS011;13522;50.018;20.014;2022-10-29T00:05:22;41.18;;;29.15;;
25663;SDS011;13522;50.018;20.014;2022-10-29T00:08:35;42.43;;;30.23;;
25663;SDS011;13522;50.018;20.014;2022-10-29T00:11:47;40.33;;;28.85;;
25663;SDS011;13522;50.018;20.014;2022-10-29T00:14:59;45.30;;;29.63;;
25663;SDS011;13522;50.018;20.014;2022-10-29T00:18:12;45.50;;;27.65;;
25663;SDS011;13522;50.018;20.014;2022-10-29T00:21:24;43.33;;;28.65;;
25663;SDS011;13522;50.018;20.014;2022-10-29T00:24:37;43.43;;;28.85;;
25663;SDS011;13522;50.018;20.014;2022-10-29T00:27:49;43.38;;;28.90;;
25663;SDS011;13522;50.018;20.014;2022-10-29T00:31:03;40.05;;;28.13;;
25663;SDS011;13522;50.018;20.014;2022-10-29T00:34:17;46.65;;;28.63;;
25663;SDS011;13522;50.018;20.014;2022-10-29T00:37:28;40.75;;;28.95;;
25663;SDS011;13522;50.018;20.014;2022-10-29T00:40:40;38.73;;;28.23;;
25663;SDS011;13522;50.018;20.014;2022-10-29T00:47:34;41.68;;;28.28;;
25663;SDS011;13522;50.018;20.014;2022-10-29T00:50:48;43.00;;;29.63;;
25663;SDS011;13522;50.018;20.014;2022-10-29T00:54:01;47.30;;;29.20;;
25663;SDS011;13522;50.018;20.014;2022-10-29T00:57:20;40.00;;;28.95;;
25663;SDS011;13522;50.018;20.014;2022-10-29T01:00:36;40.15;;;27.80;;
25663;SDS011;13522;50.018;20.014;2022-10-29T01:03:48;41.08;;;29.00;;
25663;SDS011;13522;50.018;20.014;2022-10-29T01:07:03;43.18;;;27.33;;
25663;SDS011;13522;50.018;20.014;2022-10-29T01:10:15;40.00;;;27.10;;
25663;SDS011;13522;50.018;20.014;2022-10-29T01:13:42;38.93;;;26.23;;
25663;SDS011;13522;50.018;20.014;2022-10-29T01:17:07;35.08;;;25.58;;
25663;SDS011;13522;50.018;20.014;2022-10-29T01:24:28;35.05;;;25.78;;
25663;SDS011;13522;50.018;20.014;2022-10-29T01:27:57;39.40;;;26.48;;
25663;SDS011;13522;50.018;20.014;2022-10-29T01:31:19;37.58;;;27.33;;
25663;SDS011;13522;50.018;20.014;2022-10-29T01:34:38;39.65;;;26.63;;
25663;SDS011;13522;50.018;20.014;2022-10-29T01:37:59;39.55;;;27.75;;
25663;SDS011;13522;50.018;20.014;2022-10-29T01:41:22;38.25;;;26.80;;
25663;SDS011;13522;50.018;20.014;2022-10-29T01:44:40;44.43;;;28.28;;
25663;SDS011;13522;50.018;20.014;2022-10-29T01:47:55;40.13;;;28.60;;
25663;SDS011;13522;50.018;20.014;2022-10-29T01:51:12;40.58;;;27.93;;
25663;SDS011;13522;50.018;20.014;2022-10-29T01:54:29;41.73;;;28.45;;
25663;SDS011;13522;50.018;20.014;2022-10-29T01:57:41;39.03;;;27.00;;
25663;SDS011;13522;50.018;20.014;2022-10-29T02:00:54;35.93;;;25.25;;
25663;SDS011;13522;50.018;20.014;2022-10-29T02:04:25;37.08;;;25.95;;
25663;SDS011;13522;50.018;20.014;2022-10-29T02:07:49;38.75;;;24.78;;
25663;SDS011;13522;50.018;20.014;2022-10-29T02:11:06;39.03;;;25.87;;
25663;SDS011;13522;50.018;20.014;2022-10-29T02:14:24;35.58;;;25.15;;
25663;SDS011;13522;50.018;20.014;2022-10-29T02:17:39;37.28;;;24.20;;
25663;SDS011;13522;50.018;20.014;2022-10-29T02:20:51;34.23;;;24.85;;
25663;SDS011;13522;50.018;20.014;2022-10-29T02:24:03;33.75;;;23.95;;
25663;SDS011;13522;50.018;20.014;2022-10-29T02:27:16;33.53;;;24.10;;
25663;SDS011;13522;50.018;20.014;2022-10-29T02:30:28;33.63;;;24.08;;
25663;SDS011;13522;50.018;20.014;2022-10-29T02:33:40;32.85;;;22.98;;
25663;SDS011;13522;50.018;20.014;2022-10-29T02:36:51;35.65;;;24.15;;
25663;SDS011;13522;50.018;20.014;2022-10-29T02:40:03;31.33;;;21.83;;
25663;SDS011;13522;50.018;20.014;2022-10-29T02:43:17;31.15;;;23.20;;
25663;SDS011;13522;50.018;20.014;2022-10-29T02:46:29;32.55;;;22.13;;
25663;SDS011;13522;50.018;20.014;2022-10-29T02:49:43;33.15;;;23.15;;
25663;SDS011;13522;50.018;20.014;2022-10-29T02:52:55;31.35;;;21.73;;
25663;SDS011;13522;50.018;20.014;2022-10-29T02:56:07;30.28;;;21.98;;
25663;SDS011;13522;50.018;20.014;2022-10-29T02:59:19;30.20;;;21.50;;
25663;SDS011;13522;50.018;20.014;2022-10-29T03:02:31;31.00;;;20.25;;
25663;SDS011;13522;50.018;20.014;2022-10-29T03:05:43;30.58;;;21.08;;
25663;SDS011;13522;50.018;20.014;2022-10-29T03:08:55;31.90;;;21.33;;
25663;SDS011;13522;50.018;20.014;2022-10-29T03:12:07;31.13;;;21.38;;
25663;SDS011;13522;50.018;20.014;2022-10-29T03:15:19;33.80;;;21.40;;
25663;SDS011;13522;50.018;20.014;2022-10-29T03:18:30;34.23;;;22.23;;
25663;SDS011;13522;50.018;20.014;2022-10-29T03:21:42;30.20;;;22.00;;
25663;SDS011;13522;50.018;20.014;2022-10-29T03:24:54;30.95;;;21.73;;
25663;SDS011;13522;50.018;20.014;2022-10-29T03:28:06;27.35;;;21.38;;
25663;SDS011;13522;50.018;20.014;2022-10-29T03:31:17;30.93;;;21.88;;
25663;SDS011;13522;50.018;20.014;2022-10-29T03:34:29;30.80;;;20.73;;
25663;SDS011;13522;50.018;20.014;2022-10-29T03:37:41;28.85;;;20.58;;
25663;SDS011;13522;50.018;20.014;2022-10-29T03:40:54;29.88;;;20.48;;
25663;SDS011;13522;50.018;20.014;2022-10-29T03:44:08;27.60;;;20.33;;
25663;SDS011;13522;50.018;20.014;2022-10-29T03:47:20;26.78;;;19.70;;
25663;SDS011;13522;50.018;20.014;2022-10-29T03:50:32;28.93;;;19.75;;
25663;SDS011;13522;50.018;20.014;2022-10-29T03:53:43;30.78;;;21.48;;
25663;SDS011;13522;50.018;20.014;2022-10-29T03:56:55;30.85;;;20.65;;
25663;SDS011;13522;50.018;20.014;2022-10-29T04:00:08;28.98;;;21.88;;
25663;SDS011;13522;50.018;20.014;2022-10-29T04:03:22;28.90;;;20.43;;
25663;SDS011;13522;50.018;20.014;2022-10-29T04:06:34;30.53;;;20.90;;
25663;SDS011;13522;50.018;20.014;2022-10-29T04:09:45;31.23;;;20.58;;
25663;SDS011;13522;50.018;20.014;2022-10-29T04:12:57;28.23;;;19.93;;
25663;SDS011;13522;50.018;20.014;2022-10-29T04:16:09;28.85;;;19.13;;
25663;SDS011;13522;50.018;20.014;2022-10-29T04:19:21;27.75;;;20.30;;
25663;SDS011;13522;50.018;20.014;2022-10-29T04:22:33;29.60;;;20.35;;
25663;SDS011;13522;50.018;20.014;2022-10-29T04:25:54;27.43;;;19.73;;
25663;SDS011;13522;50.018;20.014;2022-10-29T04:29:09;24.73;;;18.63;;
25663;SDS011;13522;50.018;20.014;2022-10-29T04:32:21;20.80;;;16.05;;
25663;SDS011;13522;50.018;20.014;2022-10-29T04:35:32;28.63;;;18.15;;
25663;SDS011;13522;50.018;20.014;2022-10-29T04:38:44;28.05;;;18.10;;
25663;SDS011;13522;50.018;20.014;2022-10-29T04:41:56;26.33;;;18.53;;
25663;SDS011;13522;50.018;20.014;2022-10-29T04:45:10;35.80;;;19.93;;
25663;SDS011;13522;50.018;20.014;2022-10-29T04:48:22;31.45;;;20.13;;
25663;SDS011;13522;50.018;20.014;2022-10-29T04:51:36;23.55;;;18.18;;
25663;SDS011;13522;50.018;20.014;2022-10-29T04:54:47;28.58;;;19.20;;
25663;SDS011;13522;50.018;20.014;2022-10-29T04:57:59;30.30;;;19.65;;
25663;SDS011;13522;50.018;20.014;2022-10-29T05:01:11;29.50;;;20.88;;
25663;SDS011;13522;50.018;20.014;2022-10-29T05:04:23;30.10;;;19.55;;
25663;SDS011;13522;50.018;20.014;2022-10-29T05:07:35;29.35;;;20.65;;
25663;SDS011;13522;50.018;20.014;2022-10-29T05:10:47;29.13;;;19.35;;
25663;SDS011;13522;50.018;20.014;2022-10-29T05:13:59;28.25;;;19.25;;
25663;SDS011;13522;50.018;20.014;2022-10-29T05:17:11;32.38;;;20.13;;
25663;SDS011;13522;50.018;20.014;2022-10-29T05:20:23;28.13;;;20.30;;
25663;SDS011;13522;50.018;20.014;2022-10-29T05:23:36;29.73;;;20.30;;
25663;SDS011;13522;50.018;20.014;2022-10-29T05:26:48;31.65;;;20.15;;
25663;SDS011;13522;50.018;20.014;2022-10-29T05:29:59;34.15;;;19.35;;
25663;SDS011;13522;50.018;20.014;2022-10-29T05:33:13;31.40;;;19.95;;
25663;SDS011;13522;50.018;20.014;2022-10-29T05:36:28;31.65;;;19.58;;
25663;SDS011;13522;50.018;20.014;2022-10-29T05:39:39;26.73;;;19.28;;
25663;SDS011;13522;50.018;20.014;2022-10-29T05:42:51;28.38;;;19.48;;
25663;SDS011;13522;50.018;20.014;2022-10-29T05:46:04;29.78;;;19.68;;
25663;SDS011;13522;50.018;20.014;2022-10-29T05:49:16;28.15;;;19.30;;
25663;SDS011;13522;50.018;20.014;2022-10-29T05:52:27;36.10;;;22.78;;
25663;SDS011;13522;50.018;20.014;2022-10-29T05:55:39;41.68;;;29.18;;
25663;SDS011;13522;50.018;20.014;2022-10-29T05:58:51;33.30;;;21.68;;
25663;SDS011;13522;50.018;20.014;2022-10-29T06:02:03;29.95;;;19.88;;
25663;SDS011;13522;50.018;20.014;2022-10-29T06:05:16;25.25;;;16.63;;
25663;SDS011;13522;50.018;20.014;2022-10-29T06:08:28;26.45;;;17.83;;
25663;SDS011;13522;50.018;20.014;2022-10-29T06:11:40;27.43;;;18.55;;
25663;SDS011;13522;50.018;20.014;2022-10-29T06:14:52;27.53;;;17.15;;
25663;SDS011;13522;50.018;20.014;2022-10-29T06:18:04;23.18;;;16.25;;
25663;SDS011;13522;50.018;20.014;2022-10-29T06:21:21;27.35;;;17.88;;
25663;SDS011;13522;50.018;20.014;2022-10-29T06:24:33;26.73;;;16.53;;
25663;SDS011;13522;50.018;20.014;2022-10-29T06:27:44;23.98;;;16.58;;
25663;SDS011;13522;50.018;20.014;2022-10-29T06:30:56;21.63;;;14.45;;
25663;SDS011;13522;50.018;20.014;2022-10-29T06:34:08;26.88;;;16.78;;
25663;SDS011;13522;50.018;20.014;2022-10-29T06:37:21;27.85;;;18.25;;
25663;SDS011;13522;50.018;20.014;2022-10-29T06:40:35;23.60;;;15.65;;
25663;SDS011;13522;50.018;20.014;2022-10-29T06:43:47;24.30;;;14.80;;
25663;SDS011;13522;50.018;20.014;2022-10-29T06:46:59;24.35;;;13.58;;
25663;SDS011;13522;50.018;20.014;2022-10-29T06:50:12;19.95;;;14.38;;
25663;SDS011;13522;50.018;20.014;2022-10-29T06:53:24;22.50;;;14.30;;
25663;SDS011;13522;50.018;20.014;2022-10-29T06:56:36;22.88;;;14.73;;
25663;SDS011;13522;50.018;20.014;2022-10-29T06:59:49;22.10;;;14.08;;
25663;SDS011;13522;50.018;20.014;2022-10-29T07:03:01;23.10;;;15.40;;
25663;SDS011;13522;50.018;20.014;2022-10-29T07:06:13;18.25;;;13.73;;
25663;SDS011;13522;50.018;20.014;2022-10-29T07:09:25;22.95;;;13.65;;
25663;SDS011;13522;50.018;20.014;2022-10-29T07:12:39;17.93;;;13.48;;
25663;SDS011;13522;50.018;20.014;2022-10-29T07:15:52;20.15;;;13.20;;
25663;SDS011;13522;50.018;20.014;2022-10-29T07:19:04;21.08;;;12.93;;
25663;SDS011;13522;50.018;20.014;2022-10-29T07:22:18;19.38;;;13.33;;
25663;SDS011;13522;50.018;20.014;2022-10-29T07:25:32;20.48;;;13.65;;
25663;SDS011;13522;50.018;20.014;2022-10-29T07:28:45;20.10;;;13.13;;
25663;SDS011;13522;50.018;20.014;2022-10-29T07:31:57;19.45;;;13.60;;
25663;SDS011;13522;50.018;20.014;2022-10-29T07:35:09;20.28;;;12.45;;
25663;SDS011;13522;50.018;20.014;2022-10-29T07:38:21;21.15;;;11.93;;
25663;SDS011;13522;50.018;20.014;2022-10-29T07:41:34;15.40;;;11.55;;
25663;SDS011;13522;50.018;20.014;2022-10-29T07:44:45;20.48;;;10.63;;
25663;SDS011;13522;50.018;20.014;2022-10-29T07:48:00;17.03;;;11.65;;
25663;SDS011;13522;50.018;20.014;2022-10-29T07:51:14;21.63;;;11.88;;
25663;SDS011;13522;50.018;20.014;2022-10-29T07:54:26;16.38;;;10.63;;
25663;SDS011;13522;50.018;20.014;2022-10-29T07:57:38;17.20;;;10.28;;
25663;SDS011;13522;50.018;20.014;2022-10-29T08:00:50;15.95;;;10.45;;
25663;SDS011;13522;50.018;20.014;2022-10-29T08:04:03;15.20;;;10.18;;
25663;SDS011;13522;50.018;20.014;2022-10-29T08:07:17;18.23;;;10.28;;
25663;SDS011;13522;50.018;20.014;2022-10-29T08:10:30;17.88;;;10.63;;
25663;SDS011;13522;50.018;20.014;2022-10-29T08:13:43;22.88;;;10.30;;
25663;SDS011;13522;50.018;20.014;2022-10-29T08:16:56;16.60;;;9.50;;
25663;SDS011;13522;50.018;20.014;2022-10-29T08:20:09;16.30;;;10.30;;
25663;SDS011;13522;50.018;20.014;2022-10-29T08:23:22;21.23;;;9.60;;
25663;SDS011;13522;50.018;20.014;2022-10-29T08:26:34;19.98;;;9.03;;
25663;SDS011;13522;50.018;20.014;2022-10-29T08:29:46;14.75;;;9.08;;
25663;SDS011;13522;50.018;20.014;2022-10-29T08:32:58;16.10;;;9.30;;
25663;SDS011;13522;50.018;20.014;2022-10-29T08:36:10;15.20;;;8.58;;
25663;SDS011;13522;50.018;20.014;2022-10-29T08:39:22;15.35;;;9.10;;
25663;SDS011;13522;50.018;20.014;2022-10-29T08:42:38;17.50;;;9.25;;
25663;SDS011;13522;50.018;20.014;2022-10-29T08:45:53;16.63;;;10.25;;
25663;SDS011;13522;50.018;20.014;2022-10-29T08:49:09;14.00;;;9.25;;
25663;SDS011;13522;50.018;20.014;2022-10-29T08:52:26;16.83;;;8.50;;
25663;SDS011;13522;50.018;20.014;2022-10-29T08:55:44;15.38;;;9.13;;
25663;SDS011;13522;50.018;20.014;2022-10-29T08:58:58;11.60;;;7.88;;
25663;SDS011;13522;50.018;20.014;2022-10-29T09:02:15;13.53;;;7.80;;
25663;SDS011;13522;50.018;20.014;2022-10-29T09:05:29;12.35;;;7.93;;
25663;SDS011;13522;50.018;20.014;2022-10-29T09:08:50;13.85;;;8.45;;
25663;SDS011;13522;50.018;20.014;2022-10-29T09:12:29;12.78;;;8.25;;
25663;SDS011;13522;50.018;20.014;2022-10-29T09:19:42;14.87;;;7.67;;
25663;SDS011;13522;50.018;20.014;2022-10-29T09:23:08;15.55;;;7.55;;
25663;SDS011;13522;50.018;20.014;2022-10-29T09:26:27;13.35;;;7.25;;
25663;SDS011;13522;50.018;20.014;2022-10-29T09:30:03;11.08;;;7.05;;
25663;SDS011;13522;50.018;20.014;2022-10-29T09:33:21;13.85;;;8.35;;
25663;SDS011;13522;50.018;20.014;2022-10-29T09:36:35;14.00;;;7.93;;
25663;SDS011;13522;50.018;20.014;2022-10-29T09:39:47;11.60;;;6.75;;
25663;SDS011;13522;50.018;20.014;2022-10-29T09:43:05;14.40;;;6.80;;
25663;SDS011;13522;50.018;20.014;2022-10-29T09:46:24;17.05;;;7.18;;
25663;SDS011;13522;50.018;20.014;2022-10-29T09:49:46;14.25;;;6.50;;
25663;SDS011;13522;50.018;20.014;2022-10-29T09:53:08;17.05;;;7.33;;
25663;SDS011;13522;50.018;20.014;2022-10-29T09:56:20;11.40;;;5.95;;
25663;SDS011;13522;50.018;20.014;2022-10-29T09:59:33;16.30;;;6.15;;
25663;SDS011;13522;50.018;20.014;2022-10-29T10:02:51;13.13;;;5.63;;
25663;SDS011;13522;50.018;20.014;2022-10-29T10:06:07;10.70;;;5.70;;
25663;SDS011;13522;50.018;20.014;2022-10-29T10:09:21;12.00;;;5.58;;
25663;SDS011;13522;50.018;20.014;2022-10-29T10:12:44;10.13;;;4.33;;
25663;SDS011;13522;50.018;20.014;2022-10-29T10:15:58;15.68;;;6.25;;
25663;SDS011;13522;50.018;20.014;2022-10-29T10:19:23;9.15;;;5.60;;
25663;SDS011;13522;50.018;20.014;2022-10-29T10:22:37;16.45;;;5.50;;
25663;SDS011;13522;50.018;20.014;2022-10-29T10:25:57;9.65;;;5.25;;
25663;SDS011;13522;50.018;20.014;2022-10-29T10:29:13;10.18;;;5.63;;
25663;SDS011;13522;50.018;20.014;2022-10-29T10:32:27;13.28;;;5.03;;
25663;SDS011;13522;50.018;20.014;2022-10-29T10:35:40;10.75;;;5.45;;
25663;SDS011;13522;50.018;20.014;2022-10-29T10:38:52;11.13;;;4.78;;
25663;SDS011;13522;50.018;20.014;2022-10-29T10:42:13;23.80;;;9.58;;
25663;SDS011;13522;50.018;20.014;2022-10-29T10:45:28;11.00;;;4.53;;
25663;SDS011;13522;50.018;20.014;2022-10-29T10:48:45;13.05;;;4.38;;
25663;SDS011;13522;50.018;20.014;2022-10-29T10:52:13;13.40;;;4.55;;
25663;SDS011;13522;50.018;20.014;2022-10-29T10:55:29;11.03;;;4.75;;
25663;SDS011;13522;50.018;20.014;2022-10-29T10:58:44;9.58;;;4.00;;
25663;SDS011;13522;50.018;20.014;2022-10-29T11:02:03;13.83;;;3.85;;
25663;SDS011;13522;50.018;20.014;2022-10-29T11:05:20;9.03;;;4.40;;
25663;SDS011;13522;50.018;20.014;2022-10-29T11:08:37;9.25;;;4.20;;
25663;SDS011;13522;50.018;20.014;2022-10-29T11:11:56;11.25;;;4.03;;
25663;SDS011;13522;50.018;20.014;2022-10-29T11:18:26;13.63;;;4.88;;
25663;SDS011;13522;50.018;20.014;2022-10-29T11:30:43;13.83;;;6.43;;
25663;SDS011;13522;50.018;20.014;2022-10-29T11:34:04;14.90;;;4.65;;
25663;SDS011;13522;50.018;20.014;2022-10-29T11:37:22;11.45;;;4.53;;
25663;SDS011;13522;50.018;20.014;2022-10-29T11:43:42;11.88;;;3.90;;
25663;SDS011;13522;50.018;20.014;2022-10-29T11:47:04;10.00;;;4.08;;
25663;SDS011;13522;50.018;20.014;2022-10-29T11:50:27;9.73;;;3.98;;
25663;SDS011;13522;50.018;20.014;2022-10-29T11:57:37;12.28;;;4.63;;
25663;SDS011;13522;50.018;20.014;2022-10-29T13:48:06;13.90;;;6.03;;
25663;SDS011;13522;50.018;20.014;2022-10-29T14:09:59;15.15;;;7.05;;
25663;SDS011;13522;50.018;20.014;2022-10-29T14:32:07;19.38;;;10.78;;
25663;SDS011;13522;50.018;20.014;2022-10-29T16:06:48;17.58;;;8.68;;
25663;SDS011;13522;50.018;20.014;2022-10-29T16:16:01;16.33;;;9.83;;
25663;SDS011;13522;50.018;20.014;2022-10-29T16:29:53;22.80;;;9.70;;
25663;SDS011;13522;50.018;20.014;2022-10-29T16:33:07;23.80;;;12.10;;
25663;SDS011;13522;50.018;20.014;2022-10-29T16:36:27;19.78;;;11.43;;
25663;SDS011;13522;50.018;20.014;2022-10-29T17:01:19;25.58;;;14.80;;
25663;SDS011;13522;50.018;20.014;2022-10-29T17:04:31;22.78;;;13.75;;
25663;SDS011;13522;50.018;20.014;2022-10-29T17:07:43;28.05;;;14.90;;
25663;SDS011;13522;50.018;20.014;2022-10-29T17:10:57;25.63;;;14.20;;
25663;SDS011;13522;50.018;20.014;2022-10-29T17:17:11;21.38;;;13.85;;
25663;SDS011;13522;50.018;20.014;2022-10-29T17:20:23;26.55;;;16.75;;
25663;SDS011;13522;50.018;20.014;2022-10-29T17:23:35;24.88;;;15.18;;
25663;SDS011;13522;50.018;20.014;2022-10-29T17:26:47;28.93;;;15.80;;
25663;SDS011;13522;50.018;20.014;2022-10-29T17:29:59;27.18;;;15.85;;
25663;SDS011;13522;50.018;20.014;2022-10-29T17:33:11;24.10;;;14.75;;
25663;SDS011;13522;50.018;20.014;2022-10-29T17:36:23;22.95;;;15.35;;
25663;SDS011;13522;50.018;20.014;2022-10-29T17:39:35;25.90;;;16.28;;
25663;SDS011;13522;50.018;20.014;2022-10-29T17:42:47;30.48;;;17.30;;
25663;SDS011;13522;50.018;20.014;2022-10-29T17:45:59;25.85;;;16.05;;
25663;SDS011;13522;50.018;20.014;2022-10-29T17:49:12;29.35;;;18.13;;
25663;SDS011;13522;50.018;20.014;2022-10-29T17:52:24;30.30;;;18.78;;
25663;SDS011;13522;50.018;20.014;2022-10-29T17:55:35;27.65;;;18.45;;
25663;SDS011;13522;50.018;20.014;2022-10-29T17:58:47;32.20;;;18.15;;
25663;SDS011;13522;50.018;20.014;2022-10-29T18:01:59;28.60;;;18.48;;
25663;SDS011;13522;50.018;20.014;2022-10-29T18:05:12;28.28;;;17.83;;
25663;SDS011;13522;50.018;20.014;2022-10-29T18:08:24;28.18;;;17.65;;
25663;SDS011;13522;50.018;20.014;2022-10-29T18:11:39;31.95;;;18.63;;
25663;SDS011;13522;50.018;20.014;2022-10-29T18:14:51;32.55;;;19.45;;
25663;SDS011;13522;50.018;20.014;2022-10-29T18:18:03;34.10;;;19.68;;
25663;SDS011;13522;50.018;20.014;2022-10-29T18:21:16;34.93;;;19.55;;
25663;SDS011;13522;50.018;20.014;2022-10-29T18:24:29;32.63;;;19.48;;
25663;SDS011;13522;50.018;20.014;2022-10-29T18:27:41;33.73;;;20.90;;
25663;SDS011;13522;50.018;20.014;2022-10-29T18:30:55;34.78;;;21.30;;
25663;SDS011;13522;50.018;20.014;2022-10-29T18:34:08;35.43;;;20.78;;
25663;SDS011;13522;50.018;20.014;2022-10-29T18:37:21;37.30;;;21.08;;
25663;SDS011;13522;50.018;20.014;2022-10-29T18:40:33;41.80;;;21.15;;
25663;SDS011;13522;50.018;20.014;2022-10-29T18:43:45;36.80;;;21.85;;
25663;SDS011;13522;50.018;20.014;2022-10-29T18:46:58;35.65;;;22.75;;
25663;SDS011;13522;50.018;20.014;2022-10-29T18:50:10;38.18;;;22.55;;
25663;SDS011;13522;50.018;20.014;2022-10-29T18:53:22;35.10;;;20.78;;
25663;SDS011;13522;50.018;20.014;2022-10-29T18:56:34;32.28;;;20.65;;
25663;SDS011;13522;50.018;20.014;2022-10-29T18:59:46;34.33;;;22.75;;
25663;SDS011;13522;50.018;20.014;2022-10-29T19:02:57;35.50;;;22.78;;
25663;SDS011;13522;50.018;20.014;2022-10-29T19:06:10;36.10;;;22.25;;
25663;SDS011;13522;50.018;20.014;2022-10-29T19:09:22;38.70;;;23.48;;
25663;SDS011;13522;50.018;20.014;2022-10-29T19:12:34;39.13;;;22.83;;
25663;SDS011;13522;50.018;20.014;2022-10-29T19:15:46;42.60;;;23.25;;
25663;SDS011;13522;50.018;20.014;2022-10-29T19:18:58;36.68;;;22.98;;
25663;SDS011;13522;50.018;20.014;2022-10-29T19:22:13;42.70;;;22.78;;
25663;SDS011;13522;50.018;20.014;2022-10-29T19:25:24;41.58;;;24.50;;
25663;SDS011;13522;50.018;20.014;2022-10-29T19:28:39;33.83;;;22.75;;
25663;SDS011;13522;50.018;20.014;2022-10-29T19:31:53;33.40;;;21.33;;
25663;SDS011;13522;50.018;20.014;2022-10-29T19:35:06;36.50;;;23.45;;
25663;SDS011;13522;50.018;20.014;2022-10-29T19:38:19;35.30;;;21.28;;
25663;SDS011;13522;50.018;20.014;2022-10-29T19:41:31;34.40;;;21.90;;
25663;SDS011;13522;50.018;20.014;2022-10-29T19:44:43;38.73;;;23.98;;
25663;SDS011;13522;50.018;20.014;2022-10-29T19:47:56;39.30;;;23.10;;
25663;SDS011;13522;50.018;20.014;2022-10-29T19:51:08;39.55;;;25.70;;
25663;SDS011;13522;50.018;20.014;2022-10-29T19:54:21;35.25;;;23.48;;
25663;SDS011;13522;50.018;20.014;2022-10-29T19:57:33;36.20;;;23.88;;
25663;SDS011;13522;50.018;20.014;2022-10-29T20:00:45;38.48;;;25.18;;
25663;SDS011;13522;50.018;20.014;2022-10-29T20:03:57;37.58;;;23.63;;
25663;SDS011;13522;50.018;20.014;2022-10-29T20:07:09;38.33;;;25.55;;
25663;SDS011;13522;50.018;20.014;2022-10-29T20:10:21;41.58;;;25.55;;
25663;SDS011;13522;50.018;20.014;2022-10-29T20:13:33;39.10;;;25.43;;
25663;SDS011;13522;50.018;20.014;2022-10-29T20:16:52;49.20;;;26.45;;
25663;SDS011;13522;50.018;20.014;2022-10-29T20:20:05;37.40;;;24.80;;
25663;SDS011;13522;50.018;20.014;2022-10-29T20:23:20;39.63;;;26.20;;
25663;SDS011;13522;50.018;20.014;2022-10-29T20:26:33;39.45;;;25.75;;
25663;SDS011;13522;50.018;20.014;2022-10-29T20:29:45;43.35;;;26.20;;
25663;SDS011;13522;50.018;20.014;2022-10-29T20:32:57;35.90;;;25.40;;
25663;SDS011;13522;50.018;20.014;2022-10-29T20:36:09;37.00;;;24.73;;
25663;SDS011;13522;50.018;20.014;2022-10-29T20:39:21;43.55;;;27.25;;
25663;SDS011;13522;50.018;20.014;2022-10-29T20:42:35;38.78;;;26.28;;
25663;SDS011;13522;50.018;20.014;2022-10-29T20:45:48;39.75;;;25.00;;
25663;SDS011;13522;50.018;20.014;2022-10-29T20:49:01;39.75;;;23.98;;
25663;SDS011;13522;50.018;20.014;2022-10-29T20:52:13;39.65;;;25.00;;
25663;SDS011;13522;50.018;20.014;2022-10-29T20:55:25;38.70;;;24.68;;
25663;SDS011;13522;50.018;20.014;2022-10-29T20:58:37;41.58;;;24.60;;
25663;SDS011;13522;50.018;20.014;2022-10-29T21:01:48;40.33;;;25.18;;
25663;SDS011;13522;50.018;20.014;2022-10-29T21:05:01;39.55;;;24.43;;
25663;SDS011;13522;50.018;20.014;2022-10-29T21:08:14;38.08;;;24.95;;
25663;SDS011;13522;50.018;20.014;2022-10-29T21:11:26;39.38;;;24.90;;
25663;SDS011;13522;50.018;20.014;2022-10-29T21:14:38;37.40;;;23.68;;
25663;SDS011;13522;50.018;20.014;2022-10-29T21:17:50;40.68;;;24.33;;
25663;SDS011;13522;50.018;20.014;2022-10-29T21:21:02;38.83;;;25.03;;
25663;SDS011;13522;50.018;20.014;2022-10-29T21:24:16;35.65;;;24.03;;
25663;SDS011;13522;50.018;20.014;2022-10-29T21:27:28;38.00;;;23.25;;
25663;SDS011;13522;50.018;20.014;2022-10-29T21:30:40;37.03;;;23.58;;
25663;SDS011;13522;50.018;20.014;2022-10-29T21:33:55;44.58;;;29.15;;
25663;SDS011;13522;50.018;20.014;2022-10-29T21:37:07;40.55;;;24.48;;
25663;SDS011;13522;50.018;20.014;2022-10-29T21:40:19;37.70;;;24.15;;
25663;SDS011;13522;50.018;20.014;2022-10-29T21:43:31;34.55;;;23.08;;
25663;SDS011;13522;50.018;20.014;2022-10-29T21:46:43;36.65;;;23.48;;
25663;SDS011;13522;50.018;20.014;2022-10-29T21:49:54;35.75;;;24.03;;
25663;SDS011;13522;50.018;20.014;2022-10-29T21:53:09;38.00;;;24.38;;
25663;SDS011;13522;50.018;20.014;2022-10-29T21:56:21;35.25;;;23.58;;
25663;SDS011;13522;50.018;20.014;2022-10-29T21:59:33;35.68;;;22.30;;
25663;SDS011;13522;50.018;20.014;2022-10-29T22:02:45;34.48;;;23.25;;
25663;SDS011;13522;50.018;20.014;2022-10-29T22:06:01;33.50;;;22.25;;
25663;SDS011;13522;50.018;20.014;2022-10-29T22:09:15;33.55;;;22.53;;
25663;SDS011;13522;50.018;20.014;2022-10-29T22:12:26;35.58;;;23.40;;
25663;SDS011;13522;50.018;20.014;2022-10-29T22:15:38;32.03;;;22.78;;
25663;SDS011;13522;50.018;20.014;2022-10-29T22:18:52;32.20;;;22.28;;
25663;SDS011;13522;50.018;20.014;2022-10-29T22:22:04;35.88;;;23.00;;
25663;SDS011;13522;50.018;20.014;2022-10-29T22:25:16;39.68;;;24.08;;
25663;SDS011;13522;50.018;20.014;2022-10-29T22:28:28;36.65;;;22.43;;
25663;SDS011;13522;50.018;20.014;2022-10-29T22:31:40;36.10;;;23.45;;
25663;SDS011;13522;50.018;20.014;2022-10-29T22:34:51;34.95;;;22.58;;
25663;SDS011;13522;50.018;20.014;2022-10-29T22:38:03;33.75;;;22.78;;
25663;SDS011;13522;50.018;20.014;2022-10-29T22:41:15;36.50;;;22.73;;
25663;SDS011;13522;50.018;20.014;2022-10-29T22:44:29;31.98;;;22.03;;
25663;SDS011;13522;50.018;20.014;2022-10-29T22:47:40;32.85;;;22.90;;
25663;SDS011;13522;50.018;20.014;2022-10-29T22:50:58;35.43;;;22.68;;
25663;SDS011;13522;50.018;20.014;2022-10-29T22:54:12;39.33;;;23.90;;
25663;SDS011;13522;50.018;20.014;2022-10-29T22:57:23;38.33;;;22.98;;
25663;SDS011;13522;50.018;20.014;2022-10-29T23:00:35;36.68;;;21.90;;
25663;SDS011;13522;50.018;20.014;2022-10-29T23:03:47;33.68;;;22.53;;
25663;SDS011;13522;50.018;20.014;2022-10-29T23:06:59;37.45;;;24.10;;
25663;SDS011;13522;50.018;20.014;2022-10-29T23:10:11;37.10;;;23.98;;
25663;SDS011;13522;50.018;20.014;2022-10-29T23:13:23;37.05;;;23.53;;
25663;SDS011;13522;50.018;20.014;2022-10-29T23:16:35;38.93;;;25.18;;
25663;SDS011;13522;50.018;20.014;2022-10-29T23:19:47;32.85;;;23.93;;
25663;SDS011;13522;50.018;20.014;2022-10-29T23:22:59;40.23;;;25.13;;
25663;SDS011;13522;50.018;20.014;2022-10-29T23:26:10;34.10;;;23.63;;
25663;SDS011;13522;50.018;20.014;2022-10-29T23:29:22;35.28;;;24.00;;
25663;SDS011;13522;50.018;20.014;2022-10-29T23:32:34;35.30;;;23.78;;
25663;SDS011;13522;50.018;20.014;2022-10-29T23:35:46;39.13;;;24.23;;
25663;SDS011;13522;50.018;20.014;2022-10-29T23:38:59;35.80;;;22.50;;
25663;SDS011;13522;50.018;20.014;2022-10-29T23:42:11;36.85;;;23.58;;
25663;SDS011;13522;50.018;20.014;2022-10-29T23:45:22;33.75;;;22.33;;
25663;SDS011;13522;50.018;20.014;2022-10-29T23:48:34;33.48;;;22.53;;